Time;durP1;ratioP1;P1;durP2;ratioP2;P2;SDS_P1;SDS_P2;PMS_P1;PMS_P2;Temp;Humidity;BMP_temperature;BMP_pressure;BME280_temperature;BME280_humidity;BME280_pressure;Samples;Min_cycle;Max_cycle;Signal;HPM_P1;HPM_P2
2023/05/22 00:01:33;;;;;;;4.45;1.60;;;10.50;99.90;;;;;;5075871;28;20047;-63
2023/05/22 00:04:01;;;;;;;4.68;1.77;;;10.70;99.90;;;;;;5068621;28;20021;-63
2023/05/22 00:06:29;;;;;;;5.07;1.60;;;10.80;99.90;;;;;;5094666;28;20023;-63
2023/05/22 00:08:57;;;;;;;4.43;1.92;;;10.90;99.90;;;;;;5097010;28;20089;-64
2023/05/22 00:11:25;;;;;;;3.28;1.65;;;11.10;99.90;;;;;;5070470;28;20028;-64
2023/05/22 00:13:52;;;;;;;2.83;1.58;;;11.30;99.90;;;;;;5077979;28;20032;-63
2023/05/22 00:16:20;;;;;;;3.08;1.30;;;11.50;99.90;;;;;;5068300;28;20085;-64
2023/05/22 00:18:48;;;;;;;4.13;1.95;;;11.60;99.90;;;;;;5096369;28;20040;-64
2023/05/22 00:21:15;;;;;;;6.65;1.33;;;11.70;99.90;;;;;;5108916;28;20106;-64
2023/05/22 00:23:43;;;;;;;2.13;0.85;;;11.90;99.90;;;;;;5053409;28;20031;-64
2023/05/22 00:26:15;;;;;;;2.88;1.65;;;12.00;99.90;;;;;;5069617;28;20020;-56
2023/05/22 00:28:43;;;;;;;4.55;1.20;;;12.10;99.90;;;;;;5068685;28;20497;-63
2023/05/22 00:31:10;;;;;;;2.80;1.30;;;12.30;99.90;;;;;;5052670;28;20036;-59
2023/05/22 00:33:38;;;;;;;4.40;1.67;;;12.50;99.90;;;;;;5070495;28;20048;-59
2023/05/22 00:36:06;;;;;;;3.47;0.93;;;12.70;99.90;;;;;;5075393;28;20028;-60
2023/05/22 00:38:36;;;;;;;2.55;1.15;;;12.90;99.90;;;;;;5083728;28;20028;-59
2023/05/22 00:41:05;;;;;;;3.67;1.00;;;13.00;99.90;;;;;;5073416;28;20032;-59
2023/05/22 00:43:33;;;;;;;3.05;1.25;;;13.10;99.90;;;;;;5073574;28;20049;-59
2023/05/22 00:46:01;;;;;;;3.35;1.02;;;13.20;99.90;;;;;;5064224;28;20357;-59
2023/05/22 00:48:29;;;;;;;2.88;1.45;;;13.30;99.90;;;;;;5080624;28;20032;-58
2023/05/22 00:50:58;;;;;;;5.95;1.25;;;13.40;99.90;;;;;;5079070;28;20032;-59
2023/05/22 00:53:27;;;;;;;3.38;1.25;;;13.60;99.90;;;;;;5071481;28;20021;-60
2023/05/22 00:55:56;;;;;;;3.25;0.93;;;13.80;99.90;;;;;;5065263;28;20109;-59
2023/05/22 00:58:26;;;;;;;3.60;1.08;;;13.80;99.90;;;;;;5075406;28;20426;-61
2023/05/22 01:00:54;;;;;;;6.63;1.33;;;13.90;99.90;;;;;;5080569;28;20035;-60
2023/05/22 01:03:24;;;;;;;2.50;1.05;;;14.10;99.90;;;;;;5083484;28;20020;-61
2023/05/22 01:05:52;;;;;;;4.03;1.42;;;14.20;99.90;;;;;;5074216;28;20032;-59
2023/05/22 01:08:20;;;;;;;4.68;1.60;;;14.30;99.90;;;;;;5073950;28;20447;-60
2023/05/22 01:10:55;;;;;;;7.13;1.90;;;14.50;99.90;;;;;;5073558;28;20539;-60
2023/05/22 01:13:41;;;;;;;4.88;1.52;;;14.60;99.90;;;;;;5070639;28;20066;-61
2023/05/22 01:16:19;;;;;;;3.90;1.50;;;14.80;99.90;;;;;;5056586;28;20020;-61
2023/05/22 01:19:04;;;;;;;5.03;1.23;;;14.90;99.90;;;;;;5087369;28;20048;-60
2023/05/22 01:21:38;;;;;;;2.22;1.00;;;14.90;99.90;;;;;;5072402;28;20488;-60
2023/05/22 01:24:34;;;;;;;2.30;0.98;;;15.00;99.90;;;;;;5059052;28;20511;-61
2023/05/22 01:27:24;;;;;;;4.13;1.20;;;15.20;99.90;;;;;;5072483;28;20031;-61
2023/05/22 01:30:13;;;;;;;5.50;1.38;;;15.10;99.90;;;;;;5081772;28;20036;-60
2023/05/22 01:32:43;;;;;;;5.60;1.50;;;15.20;99.90;;;;;;5074839;28;20119;-61
2023/05/22 01:35:14;;;;;;;2.83;1.40;;;15.30;99.90;;;;;;5057284;28;20392;-61
2023/05/22 01:37:43;;;;;;;2.85;0.90;;;15.30;99.90;;;;;;5057207;28;20898;-61
2023/05/22 01:40:12;;;;;;;11.40;2.15;;;15.40;99.90;;;;;;5077867;28;20487;-59
2023/05/22 01:42:41;;;;;;;4.75;1.33;;;15.60;99.90;;;;;;5076259;28;20565;-60
2023/05/22 01:45:13;;;;;;;3.00;1.02;;;15.70;99.90;;;;;;5064025;28;20074;-60
2023/05/22 01:47:41;;;;;;;2.75;1.20;;;15.80;99.90;;;;;;5071457;28;20073;-60
2023/05/22 01:50:09;;;;;;;6.50;1.50;;;15.90;99.90;;;;;;5073035;28;20028;-60
2023/05/22 01:52:40;;;;;;;3.33;1.00;;;16.10;99.90;;;;;;5077357;28;20044;-60
2023/05/22 01:55:19;;;;;;;3.58;1.63;;;16.10;98.40;;;;;;5084959;28;20021;-60
2023/05/22 01:57:55;;;;;;;4.80;1.33;;;16.20;95.20;;;;;;5071620;28;20024;-60
2023/05/22 02:00:26;;;;;;;5.55;1.38;;;16.10;95.80;;;;;;5070529;28;20132;-59
2023/05/22 02:03:08;;;;;;;4.35;1.10;;;16.20;94.90;;;;;;5077135;28;20020;-60
2023/05/22 02:05:39;;;;;;;4.32;1.25;;;16.30;95.40;;;;;;5077530;28;20643;-60
2023/05/22 02:08:07;;;;;;;3.30;1.20;;;16.50;93.20;;;;;;5081033;28;20503;-60
2023/05/22 02:10:36;;;;;;;2.75;1.02;;;16.60;90.00;;;;;;5057693;28;20401;-60
2023/05/22 02:13:04;;;;;;;4.53;1.52;;;16.80;88.10;;;;;;5083646;28;20036;-61
2023/05/22 02:15:32;;;;;;;9.05;1.73;;;16.90;91.70;;;;;;5097562;28;20024;-59
2023/05/22 02:18:02;;;;;;;6.47;1.80;;;17.10;90.70;;;;;;5068810;28;20024;-61
2023/05/22 02:20:30;;;;;;;4.65;1.33;;;17.10;86.40;;;;;;5073994;28;20039;-60
2023/05/22 02:22:57;;;;;;;6.20;1.65;;;17.10;86.30;;;;;;5051375;28;20495;-62
2023/05/22 02:25:25;;;;;;;4.68;1.30;;;17.20;84.30;;;;;;5050564;28;20028;-61
2023/05/22 02:27:52;;;;;;;5.00;1.45;;;17.30;79.00;;;;;;5069431;28;20024;-61
2023/05/22 02:30:20;;;;;;;6.80;2.08;;;17.30;82.80;;;;;;5051923;28;20182;-61
2023/05/22 02:32:47;;;;;;;7.18;1.80;;;17.40;78.00;;;;;;5075602;28;20064;-60
2023/05/22 02:35:15;;;;;;;4.80;1.48;;;17.40;69.60;;;;;;5077956;28;20024;-61
2023/05/22 02:37:42;;;;;;;5.22;1.08;;;17.40;64.60;;;;;;5070380;28;20135;-61
2023/05/22 02:40:10;;;;;;;3.38;1.55;;;17.50;63.90;;;;;;5078091;28;20374;-61
2023/05/22 02:42:37;;;;;;;7.68;1.30;;;17.50;69.40;;;;;;5071993;28;20020;-61
2023/05/22 02:45:05;;;;;;;8.43;1.85;;;17.70;72.60;;;;;;5079072;28;20056;-61
2023/05/22 02:47:33;;;;;;;4.57;1.13;;;17.70;68.70;;;;;;5078556;28;20027;-60
2023/05/22 02:50:00;;;;;;;3.70;1.15;;;17.80;67.30;;;;;;5066108;28;20131;-61
2023/05/22 02:52:28;;;;;;;5.65;1.30;;;17.80;65.90;;;;;;5076692;28;20048;-61
2023/05/22 02:54:55;;;;;;;3.65;1.20;;;17.80;66.50;;;;;;5056014;28;20039;-61
2023/05/22 02:57:23;;;;;;;7.10;1.38;;;17.90;66.20;;;;;;5059307;28;20119;-61
2023/05/22 02:59:51;;;;;;;3.13;1.00;;;18.00;66.20;;;;;;5075967;28;20028;-60
2023/05/22 03:02:18;;;;;;;4.28;1.13;;;18.00;60.30;;;;;;5084749;28;20032;-61
2023/05/22 03:04:46;;;;;;;5.53;1.08;;;17.90;61.50;;;;;;5055181;28;20359;-61
2023/05/22 03:07:13;;;;;;;5.88;1.30;;;18.10;63.20;;;;;;5082026;28;20481;-61
2023/05/22 03:09:41;;;;;;;5.30;1.33;;;18.10;64.70;;;;;;5078211;28;20058;-61
2023/05/22 03:12:09;;;;;;;5.05;0.90;;;18.10;60.80;;;;;;5063412;28;20033;-61
2023/05/22 03:14:36;;;;;;;5.30;1.25;;;18.10;62.60;;;;;;5077336;28;20426;-60
2023/05/22 03:17:04;;;;;;;4.15;1.08;;;18.20;59.00;;;;;;5088801;28;20024;-61
2023/05/22 03:19:31;;;;;;;3.17;0.70;;;18.20;59.70;;;;;;5058595;28;20041;-60
2023/05/22 03:21:59;;;;;;;7.45;1.95;;;18.20;58.90;;;;;;5076235;28;20085;-61
2023/05/22 03:24:26;;;;;;;2.78;0.90;;;18.20;59.40;;;;;;5073771;28;20500;-61
2023/05/22 03:26:54;;;;;;;3.75;0.75;;;18.10;58.20;;;;;;5088139;28;20020;-61
2023/05/22 03:29:21;;;;;;;4.82;1.10;;;18.10;56.80;;;;;;5074042;28;20366;-66
2023/05/22 03:31:48;;;;;;;5.15;1.23;;;18.10;58.30;;;;;;5073517;28;20036;-61
2023/05/22 03:34:16;;;;;;;5.32;1.30;;;18.20;56.80;;;;;;5055822;28;20119;-61
2023/05/22 03:36:44;;;;;;;6.13;1.48;;;18.10;56.20;;;;;;5084420;28;20464;-60
2023/05/22 03:39:11;;;;;;;2.60;1.13;;;18.20;58.10;;;;;;5075707;28;20035;-60
2023/05/22 03:41:38;;;;;;;3.80;0.90;;;18.30;59.40;;;;;;5084774;28;20488;-60
2023/05/22 03:44:06;;;;;;;17.13;1.70;;;18.40;59.70;;;;;;5078533;28;20028;-60
2023/05/22 03:46:34;;;;;;;4.43;1.42;;;18.40;57.50;;;;;;5085467;28;20020;-60
2023/05/22 03:49:02;;;;;;;4.10;1.20;;;18.40;57.30;;;;;;5077621;28;20105;-61
2023/05/22 03:51:30;;;;;;;2.15;1.00;;;18.50;57.60;;;;;;5074277;28;20040;-61
2023/05/22 03:53:58;;;;;;;9.30;1.73;;;18.40;57.40;;;;;;5091128;28;20035;-61
2023/05/22 03:56:25;;;;;;;3.20;1.02;;;18.50;58.00;;;;;;5087499;28;20016;-61
2023/05/22 03:58:53;;;;;;;5.78;1.27;;;18.40;55.40;;;;;;5079138;28;20035;-61
2023/05/22 04:01:21;;;;;;;3.20;1.13;;;18.50;56.40;;;;;;5062759;28;20028;-61
2023/05/22 04:03:48;;;;;;;3.40;1.15;;;18.50;55.30;;;;;;5067972;28;20035;-61
2023/05/22 04:06:16;;;;;;;4.18;1.38;;;18.40;55.50;;;;;;5082355;28;20030;-65
2023/05/22 04:08:43;;;;;;;5.30;1.50;;;18.40;55.70;;;;;;5078687;28;20012;-60
2023/05/22 04:11:14;;;;;;;2.30;0.85;;;18.40;55.90;;;;;;5055497;28;20485;-62
2023/05/22 04:13:42;;;;;;;2.65;0.50;;;18.50;56.30;;;;;;5083233;28;20024;-62
2023/05/22 04:16:10;;;;;;;2.85;0.90;;;18.40;55.50;;;;;;5068225;28;20033;-60
2023/05/22 04:18:37;;;;;;;4.70;1.35;;;18.50;56.40;;;;;;5073582;28;20017;-60
2023/05/22 04:21:06;;;;;;;4.47;0.93;;;18.40;57.00;;;;;;5062018;28;20370;-61
2023/05/22 04:23:34;;;;;;;4.90;1.02;;;18.50;56.60;;;;;;5081249;28;20024;-61
2023/05/22 04:26:02;;;;;;;8.40;1.48;;;18.40;56.30;;;;;;5100121;28;20020;-60
2023/05/22 04:28:29;;;;;;;3.03;1.00;;;18.50;56.00;;;;;;5076621;28;20029;-60
2023/05/22 04:30:57;;;;;;;3.47;0.90;;;18.50;57.20;;;;;;5075362;28;20481;-61
2023/05/22 04:33:24;;;;;;;2.95;0.70;;;18.50;55.40;;;;;;5083610;28;20028;-60
2023/05/22 04:35:53;;;;;;;2.63;0.73;;;18.40;55.90;;;;;;5074222;28;20028;-58
2023/05/22 04:38:20;;;;;;;2.92;0.80;;;18.40;56.30;;;;;;5067210;28;20031;-59
2023/05/22 04:40:49;;;;;;;2.00;1.23;;;18.30;56.20;;;;;;5078504;28;20493;-58
2023/05/22 04:43:17;;;;;;;2.60;0.95;;;18.20;56.30;;;;;;5073302;28;20400;-59
2023/05/22 04:45:45;;;;;;;2.75;0.90;;;18.10;55.80;;;;;;5082525;28;20025;-58
2023/05/22 04:48:12;;;;;;;1.98;0.70;;;18.10;56.00;;;;;;5078885;28;20035;-59
2023/05/22 04:50:39;;;;;;;2.58;0.85;;;18.00;55.20;;;;;;5074448;28;20030;-60
2023/05/22 04:53:07;;;;;;;2.47;0.65;;;17.90;55.80;;;;;;5083863;28;20052;-60
2023/05/22 04:55:35;;;;;;;1.38;0.63;;;17.90;56.20;;;;;;5071478;28;20027;-60
2023/05/22 04:58:04;;;;;;;5.45;1.10;;;17.90;54.80;;;;;;5079681;28;20143;-59
2023/05/22 05:00:32;;;;;;;2.45;0.70;;;17.80;56.00;;;;;;5051104;28;20055;-60
2023/05/22 05:02:59;;;;;;;0.88;0.30;;;17.80;56.70;;;;;;5084853;28;20160;-59
2023/05/22 05:05:27;;;;;;;5.00;1.10;;;17.70;56.60;;;;;;5077124;28;20021;-59
2023/05/22 05:07:54;;;;;;;2.17;0.90;;;17.70;55.90;;;;;;5074350;28;20035;-59
2023/05/22 05:10:22;;;;;;;4.90;1.08;;;17.70;57.10;;;;;;5071130;28;20020;-61
2023/05/22 05:12:49;;;;;;;5.72;1.20;;;17.80;57.50;;;;;;5076608;28;20035;-59
2023/05/22 05:15:17;;;;;;;5.43;1.30;;;17.80;56.30;;;;;;5076016;28;20016;-60
2023/05/22 05:17:44;;;;;;;5.75;2.03;;;17.80;57.10;;;;;;5075597;28;20103;-60
2023/05/22 05:20:13;;;;;;;5.15;1.17;;;17.90;57.10;;;;;;5078397;28;20175;-61
2023/05/22 05:22:42;;;;;;;5.57;1.33;;;17.90;57.00;;;;;;5053802;28;20034;-59
2023/05/22 05:25:10;;;;;;;4.20;1.10;;;17.80;58.00;;;;;;5055095;28;21504;-59
2023/05/22 05:27:38;;;;;;;4.00;1.17;;;17.80;58.70;;;;;;5080365;28;20681;-61
2023/05/22 05:30:06;;;;;;;2.22;0.95;;;17.70;58.20;;;;;;5077136;28;20374;-59
2023/05/22 05:32:33;;;;;;;4.93;1.30;;;17.60;58.40;;;;;;5068391;28;20475;-60
2023/05/22 05:35:01;;;;;;;7.60;1.45;;;17.50;58.90;;;;;;5081741;28;20465;-59
2023/05/22 05:37:28;;;;;;;6.03;1.80;;;17.40;59.50;;;;;;5058732;28;20413;-60
2023/05/22 05:39:56;;;;;;;5.60;1.17;;;17.30;60.90;;;;;;5076585;28;20491;-59
2023/05/22 05:42:23;;;;;;;4.15;1.25;;;17.40;59.90;;;;;;5072542;28;20032;-59
2023/05/22 05:44:51;;;;;;;4.70;1.48;;;17.30;60.80;;;;;;5070905;28;20115;-59
2023/05/22 05:47:18;;;;;;;7.93;1.52;;;17.20;61.20;;;;;;5085861;28;20077;-59
2023/05/22 05:49:45;;;;;;;7.75;1.95;;;17.10;62.00;;;;;;5080371;28;20024;-59
2023/05/22 05:52:13;;;;;;;5.68;1.50;;;17.20;61.00;;;;;;5069536;28;20052;-60
2023/05/22 05:54:45;;;;;;;4.65;1.00;;;17.10;62.70;;;;;;5080158;28;20048;-59
2023/05/22 05:57:14;;;;;;;3.88;1.02;;;16.90;63.80;;;;;;5060425;28;20638;-59
2023/05/22 05:59:41;;;;;;;4.10;1.63;;;16.80;62.40;;;;;;5069524;28;20190;-59
2023/05/22 06:02:09;;;;;;;5.88;1.50;;;16.70;64.10;;;;;;5058388;28;20035;-59
2023/05/22 06:04:37;;;;;;;4.05;1.02;;;16.60;64.70;;;;;;5076820;28;20020;-59
2023/05/22 06:07:05;;;;;;;5.28;1.40;;;16.50;65.20;;;;;;5071946;28;20020;-60
2023/05/22 06:09:32;;;;;;;3.85;1.27;;;16.40;65.90;;;;;;5066498;28;20058;-59
2023/05/22 06:12:00;;;;;;;4.53;1.73;;;16.30;66.20;;;;;;5071278;28;20035;-59
2023/05/22 06:14:27;;;;;;;9.18;1.70;;;16.20;66.40;;;;;;5071375;28;20449;-60
2023/05/22 06:16:55;;;;;;;2.88;1.00;;;16.10;65.50;;;;;;5057738;28;20438;-59
2023/05/22 06:19:22;;;;;;;3.63;1.10;;;16.00;65.60;;;;;;5079760;28;20031;-59
2023/05/22 06:21:50;;;;;;;4.25;1.33;;;15.90;65.90;;;;;;5077189;28;20063;-60
2023/05/22 06:24:18;;;;;;;2.40;1.02;;;15.80;66.20;;;;;;5075651;28;20028;-59
2023/05/22 06:26:45;;;;;;;9.23;2.08;;;15.70;67.20;;;;;;5075520;28;20028;-59
2023/05/22 06:29:13;;;;;;;4.70;1.13;;;15.60;67.80;;;;;;5075493;28;20024;-59
2023/05/22 06:31:40;;;;;;;5.13;1.10;;;15.50;68.50;;;;;;5070852;28;20391;-59
2023/05/22 06:34:08;;;;;;;2.58;1.73;;;15.30;69.50;;;;;;5075838;28;20031;-59
2023/05/22 06:36:36;;;;;;;6.40;1.40;;;15.10;71.10;;;;;;5074854;28;20116;-59
2023/05/22 06:39:03;;;;;;;5.55;1.48;;;15.00;71.90;;;;;;5072958;28;20029;-59
2023/05/22 06:41:32;;;;;;;12.70;2.10;;;14.80;73.00;;;;;;5070162;28;20034;-59
2023/05/22 06:44:00;;;;;;;4.43;0.80;;;14.60;73.50;;;;;;5074795;28;20024;-60
2023/05/22 06:46:28;;;;;;;4.30;1.17;;;14.50;74.40;;;;;;5071114;28;20020;-59
2023/05/22 06:48:56;;;;;;;5.93;1.13;;;14.30;75.50;;;;;;5075348;28;20070;-59
2023/05/22 06:51:23;;;;;;;5.63;1.42;;;14.10;76.90;;;;;;5074311;28;20623;-60
2023/05/22 06:53:51;;;;;;;3.72;1.63;;;14.00;77.70;;;;;;5077709;28;20028;-59
2023/05/22 06:56:18;;;;;;;3.72;1.48;;;13.80;79.10;;;;;;5079851;28;20487;-60
2023/05/22 06:58:46;;;;;;;6.78;1.85;;;13.60;80.00;;;;;;5058760;28;20055;-61
2023/05/22 07:01:13;;;;;;;3.72;1.17;;;13.50;81.60;;;;;;5079387;28;20385;-60
2023/05/22 07:03:41;;;;;;;4.93;1.17;;;13.30;83.90;;;;;;5078931;28;20384;-59
2023/05/22 07:06:08;;;;;;;3.72;1.50;;;13.20;87.40;;;;;;5061991;28;20428;-60
2023/05/22 07:08:36;;;;;;;10.50;1.73;;;13.00;91.00;;;;;;5074965;28;20020;-60
2023/05/22 07:11:05;;;;;;;5.68;2.35;;;12.90;92.20;;;;;;5078139;28;20035;-59
2023/05/22 07:13:33;;;;;;;7.00;3.03;;;12.80;93.20;;;;;;5076492;28;20401;-60
2023/05/22 07:16:00;;;;;;;7.65;4.10;;;12.70;94.00;;;;;;5079336;28;20032;-59
2023/05/22 07:18:28;;;;;;;9.15;3.28;;;12.60;95.00;;;;;;5079821;28;20066;-60
2023/05/22 07:20:55;;;;;;;5.25;2.70;;;12.50;96.10;;;;;;5087902;28;20031;-60
2023/05/22 07:23:23;;;;;;;8.65;2.45;;;12.40;97.20;;;;;;5082465;28;20054;-60
2023/05/22 07:25:50;;;;;;;7.00;2.22;;;12.30;97.80;;;;;;5081921;28;20037;-60
2023/05/22 07:28:18;;;;;;;7.05;1.80;;;12.20;99.90;;;;;;5080882;28;20108;-59
2023/05/22 07:30:45;;;;;;;3.53;1.65;;;12.30;99.90;;;;;;5086027;28;20028;-59
2023/05/22 07:33:12;;;;;;;7.22;2.50;;;12.20;99.90;;;;;;5075617;28;20288;-59
2023/05/22 07:35:40;;;;;;;6.32;1.80;;;12.30;99.90;;;;;;5075716;28;20080;-59
2023/05/22 07:38:07;;;;;;;8.88;2.33;;;12.20;99.90;;;;;;5079864;28;20024;-60
2023/05/22 07:40:35;;;;;;;6.70;1.70;;;12.10;99.90;;;;;;5083196;28;20485;-59
2023/05/22 07:43:02;;;;;;;9.10;1.85;;;12.10;99.90;;;;;;5078333;28;20477;-60
2023/05/22 07:45:30;;;;;;;6.68;1.73;;;12.00;99.90;;;;;;5076724;28;20024;-60
2023/05/22 07:47:57;;;;;;;8.13;1.50;;;12.10;99.90;;;;;;5072569;28;20077;-59
2023/05/22 07:50:26;;;;;;;6.57;1.73;;;12.10;99.90;;;;;;5078052;28;20048;-59
2023/05/22 07:52:53;;;;;;;3.67;1.40;;;12.10;99.90;;;;;;5073090;28;20044;-63
2023/05/22 07:55:20;;;;;;;4.18;1.48;;;12.00;99.90;;;;;;5072896;28;20085;-63
2023/05/22 07:57:48;;;;;;;7.82;1.85;;;11.80;99.90;;;;;;5084655;28;20044;-64
2023/05/22 08:00:16;;;;;;;3.22;1.20;;;11.70;99.90;;;;;;5075428;28;20033;-64
2023/05/22 08:02:45;;;;;;;3.03;1.42;;;11.60;99.90;;;;;;5053951;28;20552;-63
2023/05/22 08:05:13;;;;;;;4.40;1.67;;;11.50;99.90;;;;;;5075894;28;20701;-66
2023/05/22 08:07:40;;;;;;;3.35;1.83;;;11.30;99.90;;;;;;5072245;28;20837;-67
2023/05/22 08:10:16;;;;;;;8.07;1.20;;;11.20;99.90;;;;;;5075043;28;20041;-68
2023/05/22 08:12:44;;;;;;;6.95;1.30;;;11.10;99.90;;;;;;5069516;28;20021;-67
2023/05/22 08:15:12;;;;;;;9.57;1.75;;;11.10;99.90;;;;;;5079782;28;20024;-68
2023/05/22 08:17:40;;;;;;;4.47;1.50;;;11.10;99.90;;;;;;5071382;28;20094;-68
2023/05/22 08:20:08;;;;;;;8.18;1.60;;;10.90;99.90;;;;;;5074470;28;20020;-66
2023/05/22 08:22:40;;;;;;;3.25;1.23;;;10.70;99.90;;;;;;5071287;28;20497;-67
2023/05/22 08:25:08;;;;;;;7.57;1.38;;;10.80;99.90;;;;;;5071034;28;20478;-62
2023/05/22 08:27:35;;;;;;;5.82;1.80;;;10.90;99.90;;;;;;5073103;28;20056;-65
2023/05/22 08:30:04;;;;;;;6.70;1.65;;;10.80;99.90;;;;;;5075002;28;20028;-65
2023/05/22 08:32:31;;;;;;;4.35;1.30;;;10.70;99.90;;;;;;5070713;28;20040;-65
2023/05/22 08:34:59;;;;;;;6.55;2.00;;;10.60;99.90;;;;;;5076201;28;20054;-63
2023/05/22 08:37:26;;;;;;;7.85;2.58;;;10.50;99.90;;;;;;5076880;28;20029;-66
2023/05/22 08:39:54;;;;;;;8.73;2.70;;;10.60;99.90;;;;;;5050096;28;20028;-67
2023/05/22 08:42:22;;;;;;;6.75;2.10;;;10.50;99.90;;;;;;5071057;28;20103;-65
2023/05/22 08:44:50;;;;;;;6.82;2.47;;;10.50;99.90;;;;;;5073274;28;20028;-67
2023/05/22 08:47:19;;;;;;;12.90;2.88;;;10.60;99.90;;;;;;5061060;28;20143;-66
2023/05/22 08:49:50;;;;;;;13.77;3.22;;;10.50;99.90;;;;;;5068183;28;20029;-65
2023/05/22 08:52:34;;;;;;;7.55;3.05;;;10.50;99.90;;;;;;5076176;28;20536;-65
2023/05/22 08:55:07;;;;;;;8.80;2.65;;;10.50;99.90;;;;;;5076652;28;20023;-67
2023/05/22 08:57:36;;;;;;;8.00;2.63;;;10.30;99.90;;;;;;5078955;28;20027;-66
2023/05/22 09:00:04;;;;;;;6.32;2.35;;;10.30;99.90;;;;;;5076029;28;20032;-65
2023/05/22 09:02:32;;;;;;;6.35;2.40;;;10.30;99.90;;;;;;5051608;28;20056;-64
2023/05/22 09:05:04;;;;;;;10.05;2.33;;;10.20;99.90;;;;;;5051967;28;20081;-63
2023/05/22 09:07:31;;;;;;;8.73;2.20;;;10.10;99.90;;;;;;5070098;28;20032;-65
2023/05/22 09:10:00;;;;;;;7.88;2.28;;;10.00;99.90;;;;;;5073724;28;20423;-66
2023/05/22 09:12:27;;;;;;;12.05;2.85;;;10.00;99.90;;;;;;5071118;28;20118;-65
2023/05/22 09:14:54;;;;;;;12.60;2.45;;;9.90;99.90;;;;;;5070353;28;20107;-64
2023/05/22 09:17:22;;;;;;;13.23;2.67;;;9.90;99.90;;;;;;5049926;28;20439;-65
2023/05/22 09:19:49;;;;;;;10.63;2.50;;;9.80;99.90;;;;;;5076659;28;20672;-65
2023/05/22 09:22:17;;;;;;;9.30;2.13;;;9.80;99.90;;;;;;5051593;28;20052;-65
2023/05/22 09:24:48;;;;;;;14.57;3.90;;;9.70;99.90;;;;;;5065307;28;20461;-66
2023/05/22 09:27:16;;;;;;;6.50;2.05;;;9.50;99.90;;;;;;5076034;28;20107;-65
2023/05/22 09:29:55;;;;;;;9.80;2.92;;;9.40;99.90;;;;;;5052773;28;20103;-66
2023/05/22 09:32:23;;;;;;;9.70;2.88;;;9.40;99.90;;;;;;5071254;28;20047;-65
2023/05/22 09:34:51;;;;;;;10.95;3.30;;;9.20;99.90;;;;;;5078730;28;20024;-65
2023/05/22 09:37:18;;;;;;;10.43;2.78;;;9.10;99.90;;;;;;5059138;28;20393;-66
2023/05/22 09:39:50;;;;;;;14.50;3.30;;;9.10;99.90;;;;;;5077582;28;20498;-64
2023/05/22 09:42:17;;;;;;;17.48;4.82;;;9.10;99.90;;;;;;5080140;28;20098;-65
2023/05/22 09:44:49;;;;;;;13.68;6.05;;;9.10;99.90;;;;;;5074157;28;20397;-65
2023/05/22 09:47:16;;;;;;;12.75;5.95;;;9.20;99.90;;;;;;5070274;28;20028;-65
2023/05/22 09:49:44;;;;;;;9.00;5.03;;;9.20;99.90;;;;;;5067640;28;20100;-66
2023/05/22 09:52:12;;;;;;;9.52;4.57;;;9.10;99.90;;;;;;5078532;28;20121;-64
2023/05/22 09:54:55;;;;;;;14.10;5.15;;;9.10;99.90;;;;;;5083057;28;20024;-66
2023/05/22 09:57:27;;;;;;;11.93;4.63;;;9.00;99.90;;;;;;5072957;28;20474;-64
2023/05/22 09:59:59;;;;;;;12.50;4.30;;;8.90;99.90;;;;;;5070494;28;20029;-65
2023/05/22 10:02:27;;;;;;;7.47;2.95;;;8.90;99.90;;;;;;5070226;28;20024;-66
2023/05/22 10:04:55;;;;;;;16.50;3.60;;;8.90;99.90;;;;;;5066080;28;20024;-66
2023/05/22 10:07:33;;;;;;;9.55;3.53;;;8.80;99.90;;;;;;5048735;28;20035;-65
2023/05/22 10:10:10;;;;;;;16.00;3.60;;;8.70;99.90;;;;;;5055592;28;20024;-66
2023/05/22 10:12:55;;;;;;;13.77;4.20;;;8.60;99.90;;;;;;5067206;28;20040;-64
2023/05/22 10:15:23;;;;;;;8.52;3.22;;;8.60;99.90;;;;;;5068384;28;20425;-65
2023/05/22 10:17:50;;;;;;;10.52;3.35;;;8.70;99.90;;;;;;5071886;28;20103;-66
2023/05/22 10:20:19;;;;;;;9.02;2.65;;;8.70;99.90;;;;;;5071551;28;20408;-66
2023/05/22 10:22:48;;;;;;;9.27;2.42;;;8.70;99.90;;;;;;5074050;28;20047;-66
2023/05/22 10:25:17;;;;;;;5.63;2.42;;;8.70;99.90;;;;;;5056145;28;20025;-65
2023/05/22 10:27:45;;;;;;;13.30;2.90;;;8.90;99.90;;;;;;5075161;28;20056;-66
2023/05/22 10:30:33;;;;;;;8.70;2.42;;;8.90;99.90;;;;;;5078394;28;20055;-65
2023/05/22 10:33:17;;;;;;;11.45;3.17;;;9.00;99.90;;;;;;5071243;28;20432;-65
2023/05/22 10:35:56;;;;;;;12.23;2.90;;;9.00;99.90;;;;;;5074469;28;20138;-64
2023/05/22 10:38:45;;;;;;;17.08;3.22;;;9.10;99.90;;;;;;5072311;28;20035;-64
2023/05/22 10:41:13;;;;;;;12.20;3.72;;;9.10;99.90;;;;;;5066074;28;20044;-64
2023/05/22 10:43:47;;;;;;;16.42;2.90;;;9.10;99.90;;;;;;5079844;28;20078;-64
2023/05/22 10:46:15;;;;;;;9.85;4.22;;;9.10;99.90;;;;;;5074094;28;20366;-65
2023/05/22 10:48:48;;;;;;;16.10;3.28;;;9.10;99.90;;;;;;5078645;28;20063;-65
2023/05/22 10:51:22;;;;;;;12.68;3.40;;;9.20;99.90;;;;;;5069558;28;20068;-65
2023/05/22 10:53:59;;;;;;;17.23;4.20;;;9.20;99.90;;;;;;5068857;28;20147;-65
2023/05/22 10:56:37;;;;;;;13.77;2.63;;;9.40;99.90;;;;;;5073771;28;20020;-65
2023/05/22 10:59:06;;;;;;;17.02;3.50;;;9.40;99.90;;;;;;5072023;28;20089;-65
2023/05/22 11:01:36;;;;;;;18.75;3.83;;;9.50;99.90;;;;;;5075520;28;20081;-65
2023/05/22 11:04:04;;;;;;;10.32;2.63;;;9.50;99.90;;;;;;5077040;28;20048;-65
2023/05/22 11:06:35;;;;;;;14.20;3.15;;;9.50;99.90;;;;;;5073068;28;20028;-64
2023/05/22 11:09:28;;;;;;;11.85;3.42;;;9.50;99.90;;;;;;5072021;28;20443;-66
2023/05/22 11:12:25;;;;;;;8.93;2.90;;;9.40;99.90;;;;;;5056768;28;20098;-61
2023/05/22 11:15:06;;;;;;;11.98;3.20;;;9.40;99.90;;;;;;5063485;28;20089;-64
2023/05/22 11:17:36;;;;;;;9.15;2.85;;;9.40;99.90;;;;;;5077540;28;20386;-64
2023/05/22 11:20:30;;;;;;;14.75;2.70;;;9.40;99.90;;;;;;5070747;28;20407;-64
2023/05/22 11:23:04;;;;;;;11.43;3.13;;;9.40;99.90;;;;;;5072391;28;20040;-64
2023/05/22 11:25:36;;;;;;;15.35;3.97;;;9.30;99.90;;;;;;5082061;28;20457;-64
2023/05/22 11:28:05;;;;;;;9.23;3.22;;;9.20;99.90;;;;;;5084850;28;20032;-65
2023/05/22 11:30:33;;;;;;;10.50;3.20;;;9.20;99.90;;;;;;5068607;28;20378;-64
2023/05/22 11:33:01;;;;;;;15.73;3.53;;;9.10;99.90;;;;;;5089301;28;20040;-64
2023/05/22 11:35:29;;;;;;;15.27;3.45;;;9.10;99.90;;;;;;5075333;28;20025;-64
2023/05/22 11:37:57;;;;;;;17.17;5.60;;;9.20;99.90;;;;;;5056715;28;20074;-64
2023/05/22 11:40:28;;;;;;;10.98;3.03;;;9.10;99.90;;;;;;5080378;28;20062;-65
2023/05/22 11:42:55;;;;;;;12.85;3.17;;;9.10;99.90;;;;;;5063041;28;20155;-64
2023/05/22 11:45:24;;;;;;;21.00;4.15;;;9.00;99.90;;;;;;5077450;28;20024;-65
2023/05/22 11:47:51;;;;;;;12.82;2.83;;;8.90;99.90;;;;;;5076666;28;20107;-64
2023/05/22 11:50:19;;;;;;;14.95;2.80;;;8.90;99.90;;;;;;5058282;28;20119;-64
2023/05/22 11:52:48;;;;;;;9.45;3.17;;;8.80;99.90;;;;;;5070870;28;20043;-64
2023/05/22 11:55:15;;;;;;;12.60;3.15;;;8.80;99.90;;;;;;5079109;28;20020;-64
2023/05/22 11:57:43;;;;;;;13.40;2.83;;;8.70;99.90;;;;;;5074957;28;20059;-64
2023/05/22 12:00:11;;;;;;;11.32;2.90;;;8.70;99.90;;;;;;5079197;28;20397;-64
2023/05/22 12:02:38;;;;;;;13.43;3.20;;;8.70;99.90;;;;;;5073484;28;20043;-65
2023/05/22 12:05:08;;;;;;;12.20;3.28;;;8.70;99.90;;;;;;5077629;28;20125;-64
2023/05/22 12:07:36;;;;;;;14.57;3.42;;;8.70;99.90;;;;;;5083739;28;20035;-64
2023/05/22 12:10:06;;;;;;;15.45;3.80;;;8.80;99.90;;;;;;5070306;28;20081;-64
2023/05/22 12:12:34;;;;;;;13.10;2.90;;;8.70;99.90;;;;;;5075685;28;20338;-64
2023/05/22 12:15:06;;;;;;;10.40;2.58;;;8.60;99.90;;;;;;5075156;28;20024;-64
2023/05/22 12:17:37;;;;;;;10.63;3.13;;;8.50;99.90;;;;;;5079233;28;20529;-64
2023/05/22 12:20:05;;;;;;;12.45;3.65;;;8.40;99.90;;;;;;5075043;28;20107;-63
2023/05/22 12:22:33;;;;;;;10.52;3.42;;;8.40;99.90;;;;;;5079757;28;20135;-64
2023/05/22 12:25:00;;;;;;;12.65;3.10;;;8.20;99.90;;;;;;5078277;28;20389;-64
2023/05/22 12:27:31;;;;;;;9.82;2.80;;;8.10;99.90;;;;;;5079490;28;20138;-67
2023/05/22 12:29:58;;;;;;;14.25;3.08;;;8.00;99.90;;;;;;5080167;28;20111;-67
2023/05/22 12:32:28;;;;;;;16.75;3.65;;;7.80;99.90;;;;;;5078484;28;20040;-64
2023/05/22 12:34:58;;;;;;;9.57;2.92;;;7.70;99.90;;;;;;5078292;28;20035;-64
2023/05/22 12:37:26;;;;;;;8.43;3.78;;;7.60;99.90;;;;;;5056520;28;20025;-63
2023/05/22 12:40:02;;;;;;;10.68;3.97;;;7.40;99.90;;;;;;5079876;28;20028;-63
2023/05/22 12:42:30;;;;;;;13.40;4.68;;;7.30;99.90;;;;;;5080597;28;20028;-63
2023/05/22 12:44:59;;;;;;;19.15;4.75;;;7.30;99.90;;;;;;5078076;28;20040;-64
2023/05/22 12:47:26;;;;;;;11.10;3.25;;;7.20;99.90;;;;;;5074977;28;20049;-64
2023/05/22 12:49:54;;;;;;;17.08;4.70;;;7.10;99.90;;;;;;5068531;28;20020;-64
2023/05/22 12:52:21;;;;;;;13.82;3.70;;;7.10;99.90;;;;;;5077919;28;20044;-64
2023/05/22 12:54:50;;;;;;;14.45;4.47;;;7.00;99.90;;;;;;5082802;28;20039;-64
2023/05/22 12:57:18;;;;;;;13.20;3.80;;;7.00;99.90;;;;;;5087576;28;20024;-64
2023/05/22 12:59:45;;;;;;;9.00;3.75;;;6.90;99.90;;;;;;5074261;28;20023;-64